createdAt,value
2023-05-14T00:01:42.250Z,94.00
2023-05-14T00:04:09.278Z,94.20
2023-05-14T00:06:36.440Z,94.20
2023-05-14T00:09:04.434Z,94.20
2023-05-14T00:11:31.432Z,94.70
2023-05-14T00:18:17.899Z,94.80
2023-05-14T00:20:44.937Z,95.80
2023-05-14T00:23:11.956Z,96.20
2023-05-14T00:25:39.006Z,96.00
2023-05-14T00:28:06.179Z,96.00
2023-05-14T00:30:33.360Z,96.10
2023-05-14T00:33:00.433Z,96.30
2023-05-14T00:35:27.559Z,96.50
2023-05-14T00:37:55.153Z,97.00
2023-05-14T00:40:27.111Z,97.00
2023-05-14T00:42:55.043Z,96.90
2023-05-14T00:45:22.518Z,96.70
2023-05-14T00:47:49.914Z,96.20
2023-05-14T00:50:18.039Z,95.70
2023-05-14T00:52:45.224Z,95.60
2023-05-14T00:55:16.543Z,95.40
2023-05-14T00:57:44.561Z,95.60
2023-05-14T01:00:11.973Z,95.90
2023-05-14T01:02:39.153Z,96.40
2023-05-14T01:05:07.298Z,96.90
2023-05-14T01:07:56.957Z,97.60
2023-05-14T01:10:49.369Z,97.90
2023-05-14T01:13:43.511Z,98.20
2023-05-14T01:16:14.565Z,98.40
2023-05-14T01:18:43.197Z,98.80
2023-05-14T01:21:34.981Z,99.10
2023-05-14T01:24:02.049Z,99.30
2023-05-14T01:26:31.550Z,99.50
2023-05-14T01:29:13.379Z,99.60
2023-05-14T01:31:43.836Z,99.70
2023-05-14T01:34:12.459Z,100.00
2023-05-14T01:36:41.480Z,100.00
2023-05-14T01:39:10.680Z,100.00
2023-05-14T01:41:39.541Z,100.00
2023-05-14T01:44:06.792Z,100.00
2023-05-14T01:46:34.127Z,100.00
2023-05-14T01:49:01.419Z,100.00
2023-05-14T01:51:28.594Z,100.00
2023-05-14T01:53:55.677Z,100.00
2023-05-14T01:56:24.044Z,100.00
2023-05-14T01:58:51.227Z,100.00
2023-05-14T02:01:18.368Z,100.00
2023-05-14T02:03:45.944Z,100.00
2023-05-14T02:06:12.980Z,100.00
2023-05-14T02:08:40.162Z,100.00
2023-05-14T02:11:07.310Z,100.00
2023-05-14T02:13:34.398Z,100.00
2023-05-14T02:16:01.551Z,100.00
2023-05-14T02:18:28.858Z,100.00
2023-05-14T02:20:56.204Z,100.00
2023-05-14T02:23:34.193Z,100.00
2023-05-14T02:26:05.279Z,100.00
2023-05-14T02:28:32.378Z,100.00
2023-05-14T02:31:00.816Z,100.00
2023-05-14T02:33:28.450Z,100.00
2023-05-14T02:35:55.519Z,100.00
2023-05-14T02:38:23.502Z,100.00
2023-05-14T02:40:50.490Z,100.00
2023-05-14T02:43:17.627Z,100.00
2023-05-14T02:45:44.685Z,100.00
2023-05-14T02:48:12.466Z,100.00
2023-05-14T02:50:39.584Z,100.00
2023-05-14T02:53:06.637Z,100.00
2023-05-14T02:55:33.921Z,100.00
2023-05-14T02:58:00.945Z,100.00
2023-05-14T03:00:28.200Z,100.00
2023-05-14T03:02:55.867Z,100.00
2023-05-14T03:05:23.327Z,100.00
2023-05-14T03:07:53.676Z,100.00
2023-05-14T03:10:20.919Z,100.00
2023-05-14T03:12:48.178Z,100.00
2023-05-14T03:15:15.369Z,100.00
2023-05-14T03:17:42.465Z,100.00
2023-05-14T03:20:10.856Z,100.00
2023-05-14T03:22:37.916Z,100.00
2023-05-14T03:25:05.204Z,100.00
2023-05-14T03:27:32.258Z,100.00
2023-05-14T03:29:59.269Z,100.00
2023-05-14T03:32:26.512Z,100.00
2023-05-14T03:34:53.830Z,100.00
2023-05-14T03:37:21.576Z,100.00
2023-05-14T03:39:48.522Z,100.00
2023-05-14T03:42:15.607Z,100.00
2023-05-14T03:44:42.612Z,100.00
2023-05-14T03:47:09.674Z,100.00
2023-05-14T03:49:36.813Z,100.00
2023-05-14T03:52:04.045Z,100.00
2023-05-14T03:54:31.220Z,100.00
2023-05-14T04:01:17.289Z,100.00
2023-05-14T04:03:44.562Z,100.00
2023-05-14T04:06:13.449Z,100.00
2023-05-14T04:08:40.607Z,100.00
2023-05-14T04:11:08.185Z,100.00
2023-05-14T04:13:35.477Z,100.00
2023-05-14T04:16:02.757Z,100.00
2023-05-14T04:18:30.076Z,100.00
2023-05-14T04:20:57.039Z,99.90
2023-05-14T04:23:24.156Z,99.50
2023-05-14T04:25:51.183Z,99.50
2023-05-14T04:28:18.271Z,99.40
2023-05-14T04:30:45.886Z,99.10
2023-05-14T04:33:12.928Z,99.00
2023-05-14T04:35:39.923Z,98.80
2023-05-14T04:38:06.990Z,98.80
2023-05-14T04:40:33.984Z,98.70
2023-05-14T04:43:01.249Z,98.40
2023-05-14T04:45:28.408Z,98.20
2023-05-14T04:47:55.586Z,98.00
2023-05-14T04:50:22.834Z,98.10
2023-05-14T04:52:49.901Z,98.10
2023-05-14T04:55:18.236Z,98.00
2023-05-14T04:57:45.307Z,98.10
2023-05-14T05:00:13.341Z,98.00
2023-05-14T05:02:40.468Z,98.30
2023-05-14T05:05:07.771Z,98.60
2023-05-14T05:07:35.187Z,99.30
2023-05-14T05:10:02.857Z,100.00
2023-05-14T05:12:30.375Z,100.00
2023-05-14T05:14:58.135Z,100.00
2023-05-14T05:17:25.928Z,100.00
2023-05-14T05:19:53.091Z,100.00
2023-05-14T05:22:20.367Z,100.00
2023-05-14T05:24:49.791Z,100.00
2023-05-14T05:27:17.046Z,100.00
2023-05-14T05:29:44.996Z,100.00
2023-05-14T05:32:12.034Z,99.60
2023-05-14T05:34:39.281Z,99.20
2023-05-14T05:37:06.366Z,99.00
2023-05-14T05:39:35.255Z,98.90
2023-05-14T05:42:02.988Z,98.80
2023-05-14T05:44:30.005Z,98.50
2023-05-14T05:46:57.905Z,97.90
2023-05-14T05:49:24.935Z,97.70
2023-05-14T05:51:52.166Z,97.60
2023-05-14T05:54:19.180Z,97.30
2023-05-14T05:56:46.202Z,97.30
2023-05-14T05:59:13.246Z,96.80
2023-05-14T06:01:41.452Z,97.00
2023-05-14T06:04:08.507Z,97.80
2023-05-14T06:06:35.605Z,98.80
2023-05-14T06:09:02.724Z,100.00
2023-05-14T06:11:29.767Z,100.00
2023-05-14T06:13:56.788Z,100.00
2023-05-14T06:16:24.875Z,100.00
2023-05-14T06:18:52.990Z,100.00
2023-05-14T06:21:20.044Z,100.00
2023-05-14T06:23:47.365Z,100.00
2023-05-14T06:26:14.390Z,100.00
2023-05-14T06:28:41.464Z,100.00
2023-05-14T06:31:08.616Z,100.00
2023-05-14T06:33:35.661Z,100.00
2023-05-14T06:36:05.441Z,99.90
2023-05-14T06:42:31.560Z,99.00
2023-05-14T06:44:58.733Z,98.20
2023-05-14T06:47:25.826Z,97.50
2023-05-14T06:49:52.856Z,97.20
2023-05-14T06:52:19.862Z,96.70
2023-05-14T06:54:46.886Z,96.20
2023-05-14T06:57:13.961Z,95.80
2023-05-14T06:59:40.960Z,95.00
2023-05-14T07:06:06.883Z,93.70
2023-05-14T07:08:34.025Z,91.40
2023-05-14T07:11:01.119Z,91.80
2023-05-14T07:13:28.890Z,92.50
2023-05-14T07:15:56.274Z,92.30
2023-05-14T07:18:24.209Z,90.60
2023-05-14T07:20:51.254Z,90.30
2023-05-14T07:23:19.882Z,91.50
2023-05-14T07:25:47.099Z,91.40
2023-05-14T07:28:14.119Z,89.80
2023-05-14T07:30:41.169Z,89.50
2023-05-14T07:33:08.245Z,89.20
2023-05-14T07:35:35.444Z,88.00
2023-05-14T07:38:03.195Z,88.90
2023-05-14T07:40:30.188Z,87.80
2023-05-14T07:42:57.155Z,87.80
2023-05-14T07:45:24.159Z,88.10
2023-05-14T07:47:52.306Z,87.60
2023-05-14T07:50:19.645Z,86.40
2023-05-14T07:52:46.629Z,85.40
2023-05-14T07:55:13.819Z,85.10
2023-05-14T07:57:40.821Z,84.70
2023-05-14T08:00:08.398Z,84.60
2023-05-14T08:02:42.740Z,85.50
2023-05-14T08:05:10.235Z,87.20
2023-05-14T08:07:37.180Z,86.00
2023-05-14T08:10:04.481Z,84.10
2023-05-14T08:12:31.907Z,84.60
2023-05-14T08:14:58.910Z,85.10
2023-05-14T08:17:26.286Z,83.20
2023-05-14T08:19:53.983Z,84.70
2023-05-14T08:22:21.858Z,85.20
2023-05-14T08:24:48.999Z,83.20
2023-05-14T08:27:16.757Z,83.60
2023-05-14T08:29:43.775Z,84.90
2023-05-14T08:32:22.191Z,83.90
2023-05-14T08:34:50.805Z,84.40
2023-05-14T08:37:17.803Z,83.50
2023-05-14T08:39:44.963Z,82.40
2023-05-14T08:42:13.950Z,82.30
2023-05-14T08:44:50.310Z,80.80
2023-05-14T08:47:21.342Z,79.70
2023-05-14T08:49:54.393Z,79.40
2023-05-14T08:52:22.970Z,78.90
2023-05-14T08:54:51.398Z,78.90
2023-05-14T08:57:20.312Z,79.20
2023-05-14T08:59:47.702Z,78.20
2023-05-14T09:02:17.457Z,78.00
2023-05-14T09:04:44.970Z,77.70
2023-05-14T09:07:12.144Z,78.30
2023-05-14T09:09:39.376Z,76.80
2023-05-14T09:12:06.874Z,76.20
2023-05-14T09:14:33.965Z,75.60
2023-05-14T09:17:01.346Z,74.50
2023-05-14T09:19:28.740Z,73.00
2023-05-14T09:21:59.223Z,73.00
2023-05-14T09:24:29.210Z,73.40
2023-05-14T09:26:57.063Z,73.30
2023-05-14T09:29:29.107Z,74.40
2023-05-14T09:31:57.396Z,74.30
2023-05-14T09:34:32.522Z,75.70
2023-05-14T09:37:04.093Z,75.40
2023-05-14T09:39:32.184Z,76.10
2023-05-14T09:41:59.722Z,74.80
2023-05-14T09:44:27.391Z,74.90
2023-05-14T09:46:54.719Z,75.90
2023-05-14T09:49:22.437Z,75.50
2023-05-14T09:51:50.214Z,76.60
2023-05-14T09:54:17.659Z,76.00
2023-05-14T09:56:45.366Z,75.40
2023-05-14T09:59:12.436Z,76.90
2023-05-14T10:01:42.626Z,77.50
2023-05-14T10:04:11.334Z,77.70
2023-05-14T10:06:39.983Z,78.20
2023-05-14T10:09:14.100Z,78.60
2023-05-14T10:11:45.420Z,78.60
2023-05-14T10:14:25.047Z,77.70
2023-05-14T10:16:54.231Z,79.50
2023-05-14T10:19:23.885Z,79.50
2023-05-14T10:21:56.335Z,80.90
2023-05-14T10:24:24.816Z,80.50
2023-05-14T10:26:52.632Z,82.20
2023-05-14T10:29:19.628Z,82.40
2023-05-14T10:31:51.708Z,82.10
2023-05-14T10:34:38.947Z,83.20
2023-05-14T10:37:08.836Z,83.00
2023-05-14T10:40:12.228Z,81.90
2023-05-14T10:42:43.577Z,83.10
2023-05-14T10:45:13.321Z,83.90
2023-05-14T10:47:47.580Z,84.90
2023-05-14T10:50:15.970Z,85.00
2023-05-14T10:52:44.673Z,85.50
2023-05-14T10:55:16.827Z,84.90
2023-05-14T10:57:45.883Z,85.10
2023-05-14T11:00:14.720Z,85.40
2023-05-14T11:02:44.023Z,84.40
2023-05-14T11:05:33.788Z,83.60
2023-05-14T11:08:01.473Z,84.00
2023-05-14T11:10:31.312Z,84.10
2023-05-14T11:12:59.111Z,84.70
2023-05-14T11:15:28.517Z,84.10
2023-05-14T11:17:56.040Z,84.40
2023-05-14T11:20:23.606Z,84.90
2023-05-14T11:22:53.602Z,84.30
2023-05-14T11:25:21.844Z,83.30
2023-05-14T11:27:50.624Z,82.60
2023-05-14T11:30:19.554Z,83.40
2023-05-14T11:32:48.134Z,83.30
2023-05-14T11:35:15.772Z,82.60
2023-05-14T11:37:43.645Z,80.70
2023-05-14T11:40:16.876Z,81.00
2023-05-14T11:42:44.006Z,81.00
2023-05-14T11:45:12.788Z,81.00
2023-05-14T11:47:41.922Z,78.80
2023-05-14T11:50:09.805Z,78.60
2023-05-14T11:52:41.597Z,77.70
2023-05-14T11:55:12.872Z,78.30
2023-05-14T11:57:41.183Z,81.30
2023-05-14T12:00:21.320Z,81.30
2023-05-14T12:02:52.559Z,79.80
2023-05-14T12:05:19.795Z,79.60
2023-05-14T12:07:47.663Z,79.50
2023-05-14T12:10:14.940Z,79.70
2023-05-14T12:12:47.101Z,80.50
2023-05-14T12:15:16.197Z,81.20
2023-05-14T12:17:43.534Z,80.40
2023-05-14T12:20:11.735Z,82.00
2023-05-14T12:22:39.461Z,80.90
2023-05-14T12:25:13.485Z,79.90
2023-05-14T12:27:41.547Z,81.40
2023-05-14T12:32:41.303Z,78.10
2023-05-14T12:35:09.261Z,78.70
2023-05-14T12:37:37.584Z,78.30
2023-05-14T12:40:11.743Z,78.40
2023-05-14T12:42:38.776Z,78.90
2023-05-14T12:45:08.151Z,78.10
2023-05-14T12:47:36.451Z,77.80
2023-05-14T12:50:04.179Z,78.30
2023-05-14T12:55:01.492Z,78.00
2023-05-14T12:57:29.880Z,77.50
2023-05-14T12:59:57.540Z,80.00
2023-05-14T13:02:24.628Z,80.10
2023-05-14T13:04:51.692Z,79.10
2023-05-14T13:07:18.856Z,80.00
2023-05-14T13:09:45.839Z,81.20
2023-05-14T13:12:12.955Z,79.90
2023-05-14T13:14:39.980Z,80.00
2023-05-14T13:17:08.326Z,80.80
2023-05-14T13:19:35.501Z,79.80
2023-05-14T13:22:02.572Z,80.30
2023-05-14T13:24:29.679Z,80.90
2023-05-14T13:26:56.815Z,80.90
2023-05-14T13:29:24.678Z,80.80
2023-05-14T13:31:51.867Z,81.60
2023-05-14T13:34:19.273Z,80.80
2023-05-14T13:36:47.272Z,81.20
2023-05-14T13:39:14.613Z,81.60
2023-05-14T13:41:42.107Z,80.90
2023-05-14T13:44:09.103Z,81.00
2023-05-14T13:46:36.362Z,81.10
2023-05-14T13:49:03.473Z,80.60
2023-05-14T13:51:31.440Z,81.50
2023-05-14T13:53:58.487Z,81.90
2023-05-14T13:56:26.048Z,81.50
2023-05-14T13:58:53.125Z,80.70
2023-05-14T14:01:20.181Z,79.90
2023-05-14T14:03:47.388Z,79.50
2023-05-14T14:06:14.477Z,79.90
2023-05-14T14:08:41.486Z,79.50
2023-05-14T14:11:08.538Z,78.50
2023-05-14T14:13:35.643Z,79.00
2023-05-14T14:16:03.645Z,79.40
2023-05-14T14:18:30.824Z,78.20
2023-05-14T14:20:58.071Z,78.20
2023-05-14T14:23:25.215Z,79.60
2023-05-14T14:25:52.205Z,78.40
2023-05-14T14:28:19.244Z,77.60
2023-05-14T14:30:46.334Z,78.50
2023-05-14T14:33:13.444Z,75.80
2023-05-14T14:35:40.691Z,75.00
2023-05-14T14:38:07.785Z,72.90
2023-05-14T14:40:35.256Z,72.70
2023-05-14T14:43:02.323Z,73.10
2023-05-14T14:45:29.319Z,74.10
2023-05-14T14:48:22.184Z,74.20
2023-05-14T14:50:49.426Z,74.10
2023-05-14T14:53:16.428Z,73.50
2023-05-14T14:55:43.461Z,73.40
2023-05-14T14:58:10.506Z,71.70
2023-05-14T15:00:37.907Z,68.60
2023-05-14T15:03:05.036Z,69.60
2023-05-14T15:05:32.178Z,69.40
2023-05-14T15:07:59.207Z,67.70
2023-05-14T15:10:28.720Z,66.60
2023-05-14T15:12:59.693Z,66.40
2023-05-14T15:15:26.936Z,66.40
2023-05-14T15:17:54.036Z,66.10
2023-05-14T15:20:21.054Z,67.00
2023-05-14T15:22:49.182Z,67.60
2023-05-14T15:25:16.180Z,67.50
2023-05-14T15:27:43.251Z,67.60
2023-05-14T15:30:11.068Z,67.80
2023-05-14T15:32:38.202Z,68.50
2023-05-14T15:35:05.948Z,69.60
2023-05-14T15:37:45.452Z,68.40
2023-05-14T15:40:12.962Z,68.60
2023-05-14T15:42:44.278Z,67.30
2023-05-14T15:45:12.727Z,68.80
2023-05-14T15:47:43.245Z,66.20
2023-05-14T15:50:10.807Z,66.80
2023-05-14T15:52:39.252Z,67.20
2023-05-14T15:55:06.773Z,67.90
2023-05-14T15:57:34.415Z,68.00
2023-05-14T16:00:01.875Z,66.20
2023-05-14T16:02:33.370Z,67.30
2023-05-14T16:05:00.529Z,68.20
2023-05-14T16:07:27.777Z,67.60
2023-05-14T16:09:54.959Z,66.60
2023-05-14T16:12:22.654Z,65.90
2023-05-14T16:14:50.347Z,67.00
2023-05-14T16:17:17.455Z,67.40
2023-05-14T16:19:44.507Z,67.10
2023-05-14T16:22:11.609Z,66.40
2023-05-14T16:24:38.741Z,67.60
2023-05-14T16:27:06.308Z,68.10
2023-05-14T16:29:33.418Z,68.30
2023-05-14T16:32:00.598Z,68.20
2023-05-14T16:34:27.712Z,67.80
2023-05-14T16:36:54.868Z,67.90
2023-05-14T16:39:21.892Z,67.30
2023-05-14T16:41:48.843Z,68.10
2023-05-14T16:44:16.059Z,68.20
2023-05-14T16:46:43.240Z,68.80
2023-05-14T16:49:10.272Z,69.20
2023-05-14T16:51:42.535Z,69.40
2023-05-14T16:54:09.797Z,69.90
2023-05-14T16:56:37.096Z,70.50
2023-05-14T16:59:04.128Z,70.90
2023-05-14T17:01:31.538Z,70.90
2023-05-14T17:03:58.706Z,71.30
2023-05-14T17:06:25.848Z,71.50
2023-05-14T17:08:52.995Z,71.80
2023-05-14T17:11:21.157Z,72.70
2023-05-14T17:13:48.408Z,72.30
2023-05-14T17:16:16.131Z,72.50
2023-05-14T17:18:43.524Z,73.40
2023-05-14T17:21:10.525Z,73.10
2023-05-14T17:23:37.742Z,73.10
2023-05-14T17:26:04.814Z,72.40
2023-05-14T17:28:31.874Z,72.90
2023-05-14T17:30:58.883Z,73.90
2023-05-14T17:33:25.932Z,73.60
2023-05-14T17:35:52.969Z,73.00
2023-05-14T17:38:20.341Z,73.60
2023-05-14T17:40:47.542Z,73.30
2023-05-14T17:43:14.907Z,74.40
2023-05-14T17:45:54.008Z,74.90
2023-05-14T17:48:24.041Z,73.40
2023-05-14T17:50:52.064Z,73.30
2023-05-14T17:53:19.121Z,74.40
2023-05-14T17:55:46.678Z,74.80
2023-05-14T17:58:15.609Z,75.20
2023-05-14T18:00:43.941Z,75.20
2023-05-14T18:03:11.600Z,75.10
2023-05-14T18:05:38.927Z,75.60
2023-05-14T18:08:06.016Z,76.00
2023-05-14T18:10:33.049Z,77.00
2023-05-14T18:13:00.053Z,76.50
2023-05-14T18:15:27.581Z,76.30
2023-05-14T18:17:54.915Z,75.70
2023-05-14T18:20:22.141Z,77.10
2023-05-14T18:22:52.508Z,78.30
2023-05-14T18:25:19.777Z,77.70
2023-05-14T18:27:47.133Z,78.00
2023-05-14T18:30:15.549Z,78.30
2023-05-14T18:32:44.689Z,78.50
2023-05-14T18:35:12.883Z,78.10
2023-05-14T18:37:40.170Z,78.30
2023-05-14T18:40:07.899Z,78.50
2023-05-14T18:42:35.392Z,78.70
2023-05-14T18:45:04.239Z,78.80
2023-05-14T18:47:31.903Z,78.90
2023-05-14T18:50:01.858Z,79.20
2023-05-14T18:52:29.525Z,79.30
2023-05-14T18:54:56.799Z,79.30
2023-05-14T18:57:23.991Z,78.50
2023-05-14T18:59:51.039Z,79.70
2023-05-14T19:02:18.115Z,78.50
2023-05-14T19:04:52.404Z,78.50
2023-05-14T19:07:21.256Z,79.40
2023-05-14T19:09:48.661Z,79.90
2023-05-14T19:12:16.258Z,80.90
2023-05-14T19:14:43.380Z,81.70
2023-05-14T19:17:10.464Z,79.80
2023-05-14T19:19:37.901Z,80.40
2023-05-14T19:22:05.235Z,81.00
2023-05-14T19:24:32.273Z,81.40
2023-05-14T19:26:59.316Z,80.20
2023-05-14T19:29:26.352Z,81.20
2023-05-14T19:31:56.179Z,81.00
2023-05-14T19:34:23.621Z,81.40
2023-05-14T19:36:50.905Z,81.40
2023-05-14T19:39:17.918Z,81.20
2023-05-14T19:41:45.196Z,81.30
2023-05-14T19:44:12.289Z,81.30
2023-05-14T19:47:06.115Z,81.70
2023-05-14T19:49:33.179Z,82.60
2023-05-14T19:56:27.001Z,83.60
2023-05-14T19:58:54.571Z,84.10
2023-05-14T20:01:21.931Z,84.20
2023-05-14T20:03:48.994Z,83.90
2023-05-14T20:06:17.658Z,83.40
2023-05-14T20:08:47.870Z,83.20
2023-05-14T20:11:45.619Z,83.00
2023-05-14T20:14:12.624Z,82.70
2023-05-14T20:16:39.768Z,82.70
2023-05-14T20:19:06.799Z,82.70
2023-05-14T20:21:33.891Z,82.80
2023-05-14T20:24:00.929Z,83.10
2023-05-14T20:26:27.928Z,83.40
2023-05-14T20:28:55.714Z,83.90
2023-05-14T20:31:22.842Z,84.50
2023-05-14T20:33:50.072Z,84.80
2023-05-14T20:36:17.168Z,85.10
2023-05-14T20:38:44.224Z,85.40
2023-05-14T20:42:02.324Z,85.50
2023-05-14T20:44:29.406Z,85.70
2023-05-14T20:46:56.407Z,85.60
2023-05-14T20:49:23.440Z,85.80
2023-05-14T20:51:50.546Z,85.70
2023-05-14T20:54:17.600Z,85.70
2023-05-14T20:56:44.675Z,85.70
2023-05-14T20:59:11.688Z,85.60
2023-05-14T21:01:38.817Z,86.00
2023-05-14T21:04:06.318Z,86.30
2023-05-14T21:06:33.548Z,86.80
2023-05-14T21:09:00.605Z,87.20
2023-05-14T21:11:27.596Z,87.50
2023-05-14T21:13:54.648Z,87.70
2023-05-14T21:16:22.036Z,88.10
2023-05-14T21:18:49.136Z,88.30
2023-05-14T21:21:16.206Z,88.50
2023-05-14T21:23:43.379Z,88.50
2023-05-14T21:26:10.624Z,88.60
2023-05-14T21:28:37.629Z,88.70
2023-05-14T21:31:04.671Z,88.70
2023-05-14T21:33:32.018Z,88.70
2023-05-14T21:35:59.100Z,88.90
2023-05-14T21:38:26.160Z,88.90
2023-05-14T21:40:53.160Z,88.90
2023-05-14T21:43:20.241Z,89.00
2023-05-14T21:46:04.539Z,89.10
2023-05-14T21:48:31.730Z,89.20
2023-05-14T21:50:58.751Z,89.40
2023-05-14T21:53:25.809Z,89.60
2023-05-14T21:55:53.584Z,89.70
2023-05-14T21:58:21.334Z,89.70
2023-05-14T22:00:48.324Z,89.60
2023-05-14T22:03:15.704Z,89.80
2023-05-14T22:05:42.820Z,90.40
2023-05-14T22:08:11.272Z,90.60
2023-05-14T22:10:38.267Z,91.00
2023-05-14T22:13:06.794Z,91.20
2023-05-14T22:15:34.509Z,91.00
2023-05-14T22:18:03.373Z,91.00
2023-05-14T22:20:30.513Z,91.10
2023-05-14T22:22:57.462Z,91.30
2023-05-14T22:25:24.812Z,91.20
2023-05-14T22:27:52.109Z,90.90
2023-05-14T22:30:19.174Z,91.00
2023-05-14T22:32:46.641Z,91.10
2023-05-14T22:35:13.737Z,91.70
2023-05-14T22:37:40.840Z,92.60
2023-05-14T22:40:09.247Z,93.10
2023-05-14T22:42:36.502Z,93.50
2023-05-14T22:45:03.583Z,94.30
2023-05-14T22:47:30.809Z,94.70
2023-05-14T22:49:57.842Z,94.90
2023-05-14T22:52:26.166Z,94.60
2023-05-14T22:54:53.364Z,94.40
2023-05-14T22:57:20.624Z,94.50
2023-05-14T22:59:47.791Z,94.80
2023-05-14T23:02:14.815Z,94.60
2023-05-14T23:04:41.785Z,94.70
2023-05-14T23:07:08.962Z,95.40
2023-05-14T23:09:36.027Z,95.70
2023-05-14T23:12:03.073Z,95.90
2023-05-14T23:14:30.108Z,95.70
2023-05-14T23:16:57.218Z,95.50
2023-05-14T23:19:24.327Z,95.50
2023-05-14T23:21:51.379Z,95.10
2023-05-14T23:24:18.514Z,95.20
2023-05-14T23:26:45.550Z,96.30
2023-05-14T23:29:12.509Z,97.00
2023-05-14T23:31:41.187Z,97.20
2023-05-14T23:34:08.267Z,97.10
2023-05-14T23:36:36.122Z,97.00
2023-05-14T23:39:03.148Z,96.90
2023-05-14T23:41:30.156Z,96.60
2023-05-14T23:43:57.224Z,96.40
2023-05-14T23:46:24.443Z,96.00
2023-05-14T23:48:52.268Z,96.00
2023-05-14T23:51:19.228Z,96.00
2023-05-14T23:53:46.230Z,95.90
2023-05-14T23:56:13.227Z,95.50
2023-05-14T23:58:40.302Z,95.40
